createdAt,value
2018-05-18T00:01:34.937Z,98089
2018-05-18T00:04:05.055Z,98081
2018-05-18T00:06:34.463Z,98084
2018-05-18T00:09:04.633Z,98086
2018-05-18T00:11:33.981Z,98086
2018-05-18T00:14:03.284Z,98089
2018-05-18T00:16:32.679Z,98088
2018-05-18T00:19:01.988Z,98090
2018-05-18T00:21:31.256Z,98088
2018-05-18T00:24:00.592Z,98087
2018-05-18T00:26:29.995Z,98088
2018-05-18T00:28:59.296Z,98089
2018-05-18T00:31:28.698Z,98089
2018-05-18T00:33:57.999Z,98083
2018-05-18T00:36:27.302Z,98083
2018-05-18T00:38:57.411Z,98087
2018-05-18T00:41:26.724Z,98088
2018-05-18T00:43:56.128Z,98084
2018-05-18T00:46:25.428Z,98090
2018-05-18T00:48:54.832Z,98087
2018-05-18T00:51:24.133Z,98084
2018-05-18T00:53:54.200Z,98085
2018-05-18T00:56:23.546Z,98083
2018-05-18T00:58:52.857Z,98086
2018-05-18T01:01:22.250Z,98084
2018-05-18T01:03:51.561Z,98083
2018-05-18T01:06:20.965Z,98088
2018-05-18T01:08:50.270Z,98084
2018-05-18T01:11:20.386Z,98083
2018-05-18T01:13:49.791Z,98089
2018-05-18T01:16:19.093Z,98088
2018-05-18T01:18:48.495Z,98085
2018-05-18T01:21:17.796Z,98087
2018-05-18T01:23:47.200Z,98089
2018-05-18T01:26:16.604Z,98088
2018-05-18T01:28:45.993Z,98084
2018-05-18T01:31:15.308Z,98086
2018-05-18T01:33:44.718Z,98088
2018-05-18T01:36:14.833Z,98099
2018-05-18T01:38:44.182Z,98096
2018-05-18T01:41:13.540Z,98092
2018-05-18T01:43:43.610Z,98091
2018-05-18T01:46:12.959Z,98090
2018-05-18T01:48:42.260Z,98097
2018-05-18T01:51:11.655Z,98104
2018-05-18T01:53:40.966Z,98107
2018-05-18T01:56:11.030Z,98104
2018-05-18T01:58:40.387Z,98096
2018-05-18T02:01:09.637Z,98101
2018-05-18T02:03:38.872Z,98100
2018-05-18T02:06:08.070Z,98109
2018-05-18T02:08:37.301Z,98110
2018-05-18T02:11:07.264Z,98109
2018-05-18T02:13:36.500Z,98107
2018-05-18T02:16:05.908Z,98112
2018-05-18T02:18:35.197Z,98111
2018-05-18T02:21:04.492Z,98111
2018-05-18T02:23:33.803Z,98113
2018-05-18T02:26:03.116Z,98115
2018-05-18T02:28:33.229Z,98113
2018-05-18T02:31:02.526Z,98116
2018-05-18T02:33:31.833Z,98116
2018-05-18T02:36:01.236Z,98123
2018-05-18T02:38:30.538Z,98125
2018-05-18T02:40:59.941Z,98126
2018-05-18T02:43:29.349Z,98125
2018-05-18T02:45:59.414Z,98124
2018-05-18T02:48:28.771Z,98123
2018-05-18T02:50:58.888Z,98121
2018-05-18T02:53:28.189Z,98115
2018-05-18T02:55:57.491Z,98118
2018-05-18T02:58:26.898Z,98117
2018-05-18T03:00:57.014Z,98117
2018-05-18T03:03:26.418Z,98119
2018-05-18T03:05:55.717Z,98120
2018-05-18T03:08:25.022Z,98113
2018-05-18T03:10:54.323Z,98117
2018-05-18T03:13:23.726Z,98121
2018-05-18T03:15:53.026Z,98124
2018-05-18T03:18:22.416Z,98119
2018-05-18T03:20:51.731Z,98121
2018-05-18T03:23:21.034Z,98118
2018-05-18T03:25:51.160Z,98115
2018-05-18T03:28:21.273Z,98122
2018-05-18T03:30:50.677Z,98123
2018-05-18T03:33:19.980Z,98127
2018-05-18T03:35:49.381Z,98132
2018-05-18T03:38:18.688Z,98130
2018-05-18T03:40:48.087Z,98133
2018-05-18T03:43:17.388Z,98134
2018-05-18T03:45:46.767Z,98132
2018-05-18T03:48:16.098Z,98135
2018-05-18T03:50:45.496Z,98138
2018-05-18T03:53:14.797Z,98140
2018-05-18T03:55:44.096Z,98141
2018-05-18T03:58:13.399Z,98140
2018-05-18T04:00:43.465Z,98136
2018-05-18T04:03:30.435Z,98136
2018-05-18T04:06:17.552Z,98145
2018-05-18T04:08:54.329Z,98156
2018-05-18T04:11:23.732Z,98151
2018-05-18T04:13:53.022Z,98151
2018-05-18T04:16:22.336Z,98156
2018-05-18T04:18:51.739Z,98157
2018-05-18T04:21:21.047Z,98158
2018-05-18T04:23:50.447Z,98162
2018-05-18T04:26:20.567Z,98160
2018-05-18T04:28:49.868Z,98163
2018-05-18T04:31:19.168Z,98164
2018-05-18T04:33:48.469Z,98165
2018-05-18T04:36:17.760Z,98164
2018-05-18T04:38:47.175Z,98161
2018-05-18T04:41:16.468Z,98168
2018-05-18T04:43:45.777Z,98163
2018-05-18T04:46:15.173Z,98153
2018-05-18T04:48:44.481Z,98165
2018-05-18T04:51:13.793Z,98161
2018-05-18T04:53:43.903Z,98165
2018-05-18T04:56:13.206Z,98166
2018-05-18T04:58:42.641Z,98166
2018-05-18T05:01:12.011Z,98170
2018-05-18T05:03:41.411Z,98172
2018-05-18T05:06:10.720Z,98172
2018-05-18T05:08:40.122Z,98164
2018-05-18T05:11:10.242Z,98166
2018-05-18T05:13:40.365Z,98165
2018-05-18T05:16:10.482Z,98171
2018-05-18T05:18:39.884Z,98181
2018-05-18T05:21:09.291Z,98181
2018-05-18T05:23:38.643Z,98187
2018-05-18T05:26:07.995Z,98193
2018-05-18T05:28:37.295Z,98193
2018-05-18T05:31:06.697Z,98196
2018-05-18T05:33:36.004Z,98198
2018-05-18T05:36:05.405Z,98200
2018-05-18T05:38:34.694Z,98199
2018-05-18T05:41:04.007Z,98202
2018-05-18T05:43:33.312Z,98203
2018-05-18T05:46:02.609Z,98206
2018-05-18T05:48:32.011Z,98201
2018-05-18T05:51:01.320Z,98204
2018-05-18T05:53:31.486Z,98205
2018-05-18T05:56:00.842Z,98203
2018-05-18T05:58:30.255Z,98210
2018-05-18T06:00:59.644Z,98212
2018-05-18T06:03:29.049Z,98212
2018-05-18T06:05:58.349Z,98212
2018-05-18T06:08:27.654Z,98212
2018-05-18T06:10:57.042Z,98213
2018-05-18T06:13:26.358Z,98211
2018-05-18T06:15:55.705Z,98209
2018-05-18T06:18:24.959Z,98210
2018-05-18T06:20:54.364Z,98213
2018-05-18T06:23:23.667Z,98215
2018-05-18T06:25:53.784Z,98209
2018-05-18T06:28:23.076Z,98211
2018-05-18T06:30:52.489Z,98209
2018-05-18T06:33:21.893Z,98217
2018-05-18T06:35:51.196Z,98222
2018-05-18T06:38:21.621Z,98216
2018-05-18T06:40:50.923Z,98220
2018-05-18T06:43:20.317Z,98220
2018-05-18T06:45:49.626Z,98224
2018-05-18T06:48:19.021Z,98222
2018-05-18T06:50:49.456Z,98226
2018-05-18T06:53:19.682Z,98226
2018-05-18T06:55:49.066Z,98226
2018-05-18T06:58:18.382Z,98224
2018-05-18T07:00:47.686Z,98220
2018-05-18T07:03:16.987Z,98230
2018-05-18T07:05:47.507Z,98228
2018-05-18T07:08:16.819Z,98224
2018-05-18T07:10:46.120Z,98223
2018-05-18T07:13:15.524Z,98223
2018-05-18T07:15:44.893Z,98222
2018-05-18T07:18:14.228Z,98223
2018-05-18T07:20:43.529Z,98222
2018-05-18T07:23:13.637Z,98221
2018-05-18T07:25:42.956Z,98218
2018-05-18T07:28:13.072Z,98219
2018-05-18T07:30:42.358Z,98220
2018-05-18T07:33:11.676Z,98224
2018-05-18T07:35:40.978Z,98223
2018-05-18T07:38:10.281Z,98226
2018-05-18T07:40:40.397Z,98229
2018-05-18T07:43:09.699Z,98233
2018-05-18T07:45:39.101Z,98227
2018-05-18T07:48:08.406Z,98227
2018-05-18T07:50:37.808Z,98227
2018-05-18T07:53:07.108Z,98221
2018-05-18T07:55:36.913Z,98225
2018-05-18T07:58:06.226Z,98231
2018-05-18T08:00:36.347Z,98230
2018-05-18T08:03:05.749Z,98227
2018-05-18T08:05:35.055Z,98228
2018-05-18T08:08:05.171Z,98226
2018-05-18T08:10:34.573Z,98230
2018-05-18T08:13:03.870Z,98228
2018-05-18T08:15:33.177Z,98221
2018-05-18T08:18:02.476Z,98223
2018-05-18T08:20:31.825Z,98222
2018-05-18T08:23:01.183Z,98225
2018-05-18T08:25:30.586Z,98225
2018-05-18T08:27:59.888Z,98223
2018-05-18T08:30:41.754Z,98233
2018-05-18T08:33:11.068Z,98223
2018-05-18T08:35:40.386Z,98221
2018-05-18T08:38:09.676Z,98220
2018-05-18T08:40:38.990Z,98222
2018-05-18T08:43:08.382Z,98228
2018-05-18T08:45:38.823Z,98230
2018-05-18T08:48:08.224Z,98229
2018-05-18T08:50:37.526Z,98230
2018-05-18T08:53:06.929Z,98221
2018-05-18T08:55:36.639Z,98221
2018-05-18T08:58:06.045Z,98223
2018-05-18T09:00:35.335Z,98224
2018-05-18T09:03:04.646Z,98224
2018-05-18T09:05:34.048Z,98225
2018-05-18T09:08:03.351Z,98220
2018-05-18T09:10:34.188Z,98223
2018-05-18T09:13:03.489Z,98228
2018-05-18T09:15:32.892Z,98225
2018-05-18T09:18:02.195Z,98223
2018-05-18T09:20:31.599Z,98221
2018-05-18T09:23:01.005Z,98235
2018-05-18T09:25:30.302Z,98233
2018-05-18T09:27:59.611Z,98235
2018-05-18T09:30:29.725Z,98232
2018-05-18T09:32:59.129Z,98228
2018-05-18T09:35:28.432Z,98222
2018-05-18T09:37:57.833Z,98227
2018-05-18T09:40:27.238Z,98231
2018-05-18T09:42:56.529Z,98223
2018-05-18T09:45:25.840Z,98228
2018-05-18T09:47:55.085Z,98222
2018-05-18T09:50:24.442Z,98228
2018-05-18T09:52:53.742Z,98229
2018-05-18T09:55:23.407Z,98223
2018-05-18T09:57:52.551Z,98226
2018-05-18T10:00:21.954Z,98229
2018-05-18T10:02:51.255Z,98224
2018-05-18T10:05:20.544Z,98225
2018-05-18T10:07:49.859Z,98223
2018-05-18T10:10:19.162Z,98215
2018-05-18T10:12:48.562Z,98216
2018-05-18T10:15:17.966Z,98215
2018-05-18T10:17:47.270Z,98212
2018-05-18T10:20:17.389Z,98219
2018-05-18T10:22:46.691Z,98226
2018-05-18T10:25:23.516Z,98221
2018-05-18T10:27:52.871Z,98223
2018-05-18T10:30:30.971Z,98220
2018-05-18T10:33:00.379Z,98214
2018-05-18T10:35:29.677Z,98213
2018-05-18T10:38:00.518Z,98207
2018-05-18T10:40:29.819Z,98206
2018-05-18T10:42:59.224Z,98206
2018-05-18T10:45:30.061Z,98209
2018-05-18T10:48:00.182Z,98200
2018-05-18T10:50:30.303Z,98196
2018-05-18T10:52:59.760Z,98190
2018-05-18T10:55:29.008Z,98193
2018-05-18T10:57:58.307Z,98185
2018-05-18T11:00:27.609Z,98183
2018-05-18T11:02:57.017Z,98181
2018-05-18T11:05:27.188Z,98179
2018-05-18T11:07:56.482Z,98178
2018-05-18T11:10:25.843Z,98173
2018-05-18T11:12:56.062Z,98176
2018-05-18T11:15:25.428Z,98169
2018-05-18T11:17:54.765Z,98162
2018-05-18T11:20:24.169Z,98170
2018-05-18T11:22:53.473Z,98162
2018-05-18T11:25:23.591Z,98166
2018-05-18T11:27:52.892Z,98160
2018-05-18T11:30:22.294Z,98157
2018-05-18T11:32:51.598Z,98159
2018-05-18T11:35:20.901Z,98156
2018-05-18T11:37:51.018Z,98155
2018-05-18T11:40:20.321Z,98153
2018-05-18T11:42:49.724Z,98147
2018-05-18T11:45:19.069Z,98147
2018-05-18T11:47:48.429Z,98151
2018-05-18T11:50:17.834Z,98146
2018-05-18T11:52:47.135Z,98148
2018-05-18T11:55:16.439Z,98143
2018-05-18T11:57:46.556Z,98134
2018-05-18T12:00:15.958Z,98133
2018-05-18T12:02:45.380Z,98130
2018-05-18T12:05:14.770Z,98130
2018-05-18T12:07:44.886Z,98132
2018-05-18T12:10:14.294Z,98134
2018-05-18T12:12:43.695Z,98130
2018-05-18T12:15:12.995Z,98124
2018-05-18T12:17:42.400Z,98123
2018-05-18T12:20:11.706Z,98122
2018-05-18T12:22:41.821Z,98122
2018-05-18T12:25:11.226Z,98120
2018-05-18T12:27:40.529Z,98123
2018-05-18T12:30:10.646Z,98122
2018-05-18T12:32:39.952Z,98115
2018-05-18T12:35:10.069Z,98116
2018-05-18T12:37:39.474Z,98112
2018-05-18T12:40:08.884Z,98110
2018-05-18T12:42:38.996Z,98113
2018-05-18T12:45:08.389Z,98110
2018-05-18T12:47:37.703Z,98110
2018-05-18T12:50:07.823Z,98110
2018-05-18T12:52:37.123Z,98097
2018-05-18T12:55:06.428Z,98097
2018-05-18T12:57:36.546Z,98095
2018-05-18T13:00:06.670Z,98091
2018-05-18T13:02:36.787Z,98084
2018-05-18T13:05:06.193Z,98076
2018-05-18T13:07:36.310Z,98078
2018-05-18T13:10:05.714Z,98081
2018-05-18T13:12:35.015Z,98083
2018-05-18T13:15:04.418Z,98080
2018-05-18T13:17:33.722Z,98087
2018-05-18T13:20:03.122Z,98083
2018-05-18T13:22:32.524Z,98082
2018-05-18T13:25:01.896Z,98076
2018-05-18T13:27:31.175Z,98073
2018-05-18T13:30:00.533Z,98084
2018-05-18T13:32:29.937Z,98079
2018-05-18T13:35:00.057Z,98084
2018-05-18T13:37:29.464Z,98078
2018-05-18T13:39:58.866Z,98078
2018-05-18T13:42:28.984Z,98068
2018-05-18T13:44:58.418Z,98070
2018-05-18T13:47:27.691Z,98066
2018-05-18T13:49:57.810Z,98061
2018-05-18T13:52:27.213Z,98060
2018-05-18T13:54:56.617Z,98060
2018-05-18T13:57:26.020Z,98061
2018-05-18T13:59:55.424Z,98059
2018-05-18T14:02:24.822Z,98054
2018-05-18T14:04:54.230Z,98049
2018-05-18T14:07:24.352Z,98046
2018-05-18T14:09:54.412Z,98053
2018-05-18T14:12:23.740Z,98050
2018-05-18T14:14:53.076Z,98054
2018-05-18T14:17:22.325Z,98056
2018-05-18T14:19:51.677Z,98045
2018-05-18T14:22:21.761Z,98040
2018-05-18T14:24:51.919Z,98043
2018-05-18T14:27:21.218Z,98036
2018-05-18T14:29:50.620Z,98035
2018-05-18T14:32:19.988Z,98025
2018-05-18T14:34:49.275Z,98022
2018-05-18T14:37:19.044Z,98021
2018-05-18T14:39:51.072Z,98022
2018-05-18T14:42:21.479Z,98015
2018-05-18T14:44:50.778Z,98017
2018-05-18T14:47:20.135Z,98017
2018-05-18T14:49:49.539Z,98010
2018-05-18T14:52:18.843Z,98011
2018-05-18T14:54:48.250Z,98013
2018-05-18T14:57:18.363Z,98007
2018-05-18T14:59:48.233Z,98005
2018-05-18T15:02:17.684Z,98010
2018-05-18T15:04:47.806Z,98010
2018-05-18T15:07:17.209Z,98016
2018-05-18T15:09:46.510Z,98012
2018-05-18T15:12:16.630Z,98018
2018-05-18T15:14:46.650Z,98016
2018-05-18T15:17:16.768Z,98019
2018-05-18T15:19:46.171Z,98019
2018-05-18T15:22:15.472Z,98014
2018-05-18T15:24:44.875Z,98015
2018-05-18T15:27:14.177Z,98018
2018-05-18T15:29:43.567Z,98014
2018-05-18T15:32:12.883Z,98014
2018-05-18T15:34:42.184Z,98012
2018-05-18T15:37:11.599Z,98015
2018-05-18T15:39:41.706Z,98013
2018-05-18T15:42:11.000Z,98011
2018-05-18T15:44:40.311Z,98009
2018-05-18T15:47:09.714Z,98010
2018-05-18T15:49:39.017Z,98007
2018-05-18T15:52:08.418Z,98003
2018-05-18T15:54:37.823Z,98001
2018-05-18T15:57:07.124Z,98004
2018-05-18T15:59:36.424Z,98012
2018-05-18T16:02:05.722Z,98006
2018-05-18T16:04:35.027Z,98001
2018-05-18T16:07:05.093Z,98004
2018-05-18T16:09:34.449Z,98004
2018-05-18T16:12:03.749Z,98004
2018-05-18T16:14:33.055Z,98006
2018-05-18T16:17:03.119Z,98003
2018-05-18T16:19:32.473Z,98005
2018-05-18T16:22:01.872Z,98009
2018-05-18T16:24:31.162Z,98007
2018-05-18T16:27:00.478Z,98011
2018-05-18T16:29:29.680Z,98007
2018-05-18T16:31:59.800Z,98008
2018-05-18T16:34:29.106Z,98009
2018-05-18T16:36:59.166Z,98008
2018-05-18T16:39:28.522Z,98006
2018-05-18T16:41:57.821Z,98006
2018-05-18T16:44:27.213Z,98009
2018-05-18T16:46:56.527Z,98006
2018-05-18T16:49:25.931Z,98001
2018-05-18T16:51:59.689Z,98003
2018-05-18T16:54:30.773Z,98011
2018-05-18T16:57:00.082Z,98008
2018-05-18T16:59:29.480Z,98009
2018-05-18T17:01:58.728Z,98011
2018-05-18T17:04:28.086Z,98015
2018-05-18T17:06:58.201Z,98018
2018-05-18T17:09:27.613Z,98021
2018-05-18T17:11:56.806Z,98016
2018-05-18T17:14:26.044Z,98026
2018-05-18T17:16:55.299Z,98025
2018-05-18T17:19:24.489Z,98031
2018-05-18T17:21:53.795Z,98034
2018-05-18T17:24:23.111Z,98037
2018-05-18T17:26:52.502Z,98033
2018-05-18T17:29:21.889Z,98039
2018-05-18T17:31:51.207Z,98037
2018-05-18T17:34:20.525Z,98035
2018-05-18T17:36:50.642Z,98033
2018-05-18T17:39:19.943Z,98038
2018-05-18T17:41:49.347Z,98041
2018-05-18T17:44:18.733Z,98047
2018-05-18T17:46:48.154Z,98052
2018-05-18T17:49:17.439Z,98051
2018-05-18T17:51:46.756Z,98055
2018-05-18T17:54:16.888Z,98064
2018-05-18T17:56:46.987Z,98065
2018-05-18T17:59:16.282Z,98066
2018-05-18T18:01:45.705Z,98065
2018-05-18T18:04:15.824Z,98070
2018-05-18T18:06:45.124Z,98066
2018-05-18T18:09:14.469Z,98067
2018-05-18T18:11:43.829Z,98068
2018-05-18T18:14:13.131Z,98069
2018-05-18T18:16:42.431Z,98065
2018-05-18T18:19:11.826Z,98065
2018-05-18T18:21:41.136Z,98067
2018-05-18T18:24:10.485Z,98065
2018-05-18T18:26:39.841Z,98071
2018-05-18T18:29:09.138Z,98073
2018-05-18T18:31:38.546Z,98074
2018-05-18T18:34:07.846Z,98080
2018-05-18T18:36:37.257Z,98080
2018-05-18T18:39:06.677Z,98082
2018-05-18T18:41:36.059Z,98087
2018-05-18T18:44:05.462Z,98081
2018-05-18T18:46:34.769Z,98086
2018-05-18T18:49:04.889Z,98086
2018-05-18T18:51:35.005Z,98093
2018-05-18T18:54:04.394Z,98098
2018-05-18T18:56:33.708Z,98099
2018-05-18T18:59:02.998Z,98109
2018-05-18T19:01:32.312Z,98111
2018-05-18T19:04:01.704Z,98111
2018-05-18T19:06:31.015Z,98108
2018-05-18T19:09:01.854Z,98115
2018-05-18T19:11:31.259Z,98118
2018-05-18T19:14:01.378Z,98123
2018-05-18T19:16:30.678Z,98125
2018-05-18T19:19:00.082Z,98127
2018-05-18T19:21:29.387Z,98131
2018-05-18T19:23:58.787Z,98131
2018-05-18T19:26:28.093Z,98129
2018-05-18T19:28:57.405Z,98131
2018-05-18T19:31:27.500Z,98133
2018-05-18T19:33:56.813Z,98135
2018-05-18T19:36:26.235Z,98132
2018-05-18T19:38:55.618Z,98136
2018-05-18T19:41:25.012Z,98134
2018-05-18T19:43:54.323Z,98139
2018-05-18T19:46:23.728Z,98140
2018-05-18T19:48:53.131Z,98143
2018-05-18T19:51:22.432Z,98145
2018-05-18T19:53:51.835Z,98147
2018-05-18T19:56:21.140Z,98150
2018-05-18T19:58:51.258Z,98151
2018-05-18T20:01:20.661Z,98162
2018-05-18T20:03:49.900Z,98162
2018-05-18T20:06:19.264Z,98165
2018-05-18T20:08:48.565Z,98167
2018-05-18T20:11:17.867Z,98165
2018-05-18T20:13:47.237Z,98169
2018-05-18T20:16:16.574Z,98172
2018-05-18T20:18:45.867Z,98170
2018-05-18T20:21:15.069Z,98170
2018-05-18T20:23:44.473Z,98168
2018-05-18T20:26:13.762Z,98174
2018-05-18T20:28:43.030Z,98174
2018-05-18T20:31:12.380Z,98177
2018-05-18T20:33:41.679Z,98183
2018-05-18T20:36:10.981Z,98175
2018-05-18T20:38:40.282Z,98181
2018-05-18T20:41:09.687Z,98185
2018-05-18T20:43:39.091Z,98180
2018-05-18T20:46:08.387Z,98176
2018-05-18T20:48:37.697Z,98181
2018-05-18T20:51:07.816Z,98180
2018-05-18T20:53:37.933Z,98185
2018-05-18T20:56:07.282Z,98183
2018-05-18T20:58:36.681Z,98189
2018-05-18T21:01:06.042Z,98189
2018-05-18T21:03:35.420Z,98191
2018-05-18T21:06:04.748Z,98185
2018-05-18T21:08:34.051Z,98192
2018-05-18T21:11:04.169Z,98196
2018-05-18T21:13:33.572Z,98194
2018-05-18T21:16:02.871Z,98197
2018-05-18T21:18:32.250Z,98193
2018-05-18T21:21:01.476Z,98195
2018-05-18T21:23:31.537Z,98197
2018-05-18T21:26:00.898Z,98197
2018-05-18T21:28:30.301Z,98195
2018-05-18T21:30:59.603Z,98196
2018-05-18T21:33:28.903Z,98199
2018-05-18T21:35:58.308Z,98200
2018-05-18T21:38:28.326Z,98202
2018-05-18T21:40:57.730Z,98198
2018-05-18T21:43:27.138Z,98197
2018-05-18T21:45:57.254Z,98199
2018-05-18T21:48:26.648Z,98201
2018-05-18T21:50:55.957Z,98198
2018-05-18T21:53:25.361Z,98207
2018-05-18T21:55:54.617Z,98206
2018-05-18T21:58:23.965Z,98217
2018-05-18T22:00:53.374Z,98215
2018-05-18T22:03:23.897Z,98216
2018-05-18T22:05:53.199Z,98212
2018-05-18T22:08:22.594Z,98220
2018-05-18T22:10:51.909Z,98222
2018-05-18T22:13:22.024Z,98228
2018-05-18T22:15:51.430Z,98225
2018-05-18T22:18:20.830Z,98229
2018-05-18T22:20:50.120Z,98227
2018-05-18T22:23:19.440Z,98230
2018-05-18T22:25:48.725Z,98228
2018-05-18T22:28:18.037Z,98224
2018-05-18T22:30:47.430Z,98222
2018-05-18T22:33:16.747Z,98218
2018-05-18T22:35:46.801Z,98215
2018-05-18T22:38:16.164Z,98214
2018-05-18T22:40:45.566Z,98220
2018-05-18T22:43:14.857Z,98218
2018-05-18T22:45:44.176Z,98215
2018-05-18T22:48:14.233Z,98217
2018-05-18T22:50:43.594Z,98218
2018-05-18T22:53:13.653Z,98215
2018-05-18T22:55:43.018Z,98211
2018-05-18T22:58:13.133Z,98216
2018-05-18T23:00:42.540Z,98213
2018-05-18T23:03:12.658Z,98210
2018-05-18T23:05:42.061Z,98207
2018-05-18T23:08:11.362Z,98207
2018-05-18T23:10:41.584Z,98207
2018-05-18T23:13:10.889Z,98215
2018-05-18T23:15:40.181Z,98213
2018-05-18T23:18:09.496Z,98213
2018-05-18T23:20:39.551Z,98215
2018-05-18T23:23:08.910Z,98214
2018-05-18T23:25:38.291Z,98215
2018-05-18T23:28:07.559Z,98211
2018-05-18T23:30:36.814Z,98213
2018-05-18T23:33:06.217Z,98209
2018-05-18T23:35:35.621Z,98210
2018-05-18T23:38:05.025Z,98208
2018-05-18T23:40:34.430Z,98208
2018-05-18T23:43:04.498Z,98198
2018-05-18T23:45:33.849Z,98202
2018-05-18T23:48:03.154Z,98201
2018-05-18T23:50:32.555Z,98202
2018-05-18T23:53:01.877Z,98200
2018-05-18T23:55:31.250Z,98197
2018-05-18T23:58:00.565Z,98199
